SEASEATTLE-TACOMA INTL
METARs for airports near SEA, sorted by distance:
N 0 nm 432' KSEA 280653Z 03010KT 10SM FEW250 22/09 A3010
NE 4 nm 32' KRNT 280653Z 33007KT 10SM CLR 22/11 A3009
N 4 nm 21' KBFI 280653Z 28003KT 10SM CLR 21/11 A3009
SW 15 nm 294' KTIW 280653Z 27003KT 10SM CLR 17/14 A3011
W 18 nm 444' KPWT 280656Z 00000KT 10SM CLR 16/12 A3011
S 19 nm 322' KTCM 280358Z 30003KT 10SM CLR 24/15 A3006
S 20 nm 537' KPLU 280655Z 00000KT 10SM 18/16 A3011
SW 24 nm 301' KGRF 280358Z 27006KT 10SM CLR 24/14 A3005
N 27 nm 607' KPAE 280653Z 01006KT 10SM CLR 17/08 A3012
W 36 nm 272' KSHN 280653Z 26005KT 10SM CLR 14/12 A3009
SW 37 nm 207' KOLM 280654Z 00000KT 10SM CLR 16/11 A3010
N 43 nm 141' KAWO 280656Z 34005KT 10SM CLR 15/08 A3012
SW 53 nm 177' KCLS 280655Z 23004KT 10SM CLR 16/13 A3011
N 55 nm 47' KNUW 280656Z 14005KT 10SM FEW100 SCT250 12/08 A3014
NW 60 nm 13' KNOW 280655Z 28016KT 10SM CLR 14/11 A3010
N 61 nm 145' KBVS 280655Z 00000KT 10SM FEW100 11/09 A3011
NW 62 nm 291' KCLM 280653Z 30006KT 10SM CLR 14/09 A3011
NW 70 nm 112' KFHR 280653Z 00000KT 10SM CLR 11/09 A3008
SW 72 nm 17' KHQM 280653Z 27004KT 10SM CLR 14/12 A3013
E 76 nm 1763' KELN 280653Z 31012KT 10SM CLR 22/12 A3005
N 79 nm 34' KORS 280655Z VRB05KT 10SM CLR 16/11 A3006
N 81 nm 171' KBLI 280653Z 19006KT 10SM CLR 17/14 A3008
S 83 nm 20' KKLS 280656Z 31003KT 10SM CLR 17/14 A3011
NW 84 nm 64' CYYJ 280600Z 07002KT 20SM SKC 15/10 A3005
E 85 nm 1248' KEAT 280655Z 31010KT 10SM CLR 25/11 A3000
SE 89 nm 1098' KYKM 280653Z 29006KT 10SM CLR 24/12 A3002
W 95 nm 193' KUIL 280653Z 00000KT 10SM CLR 11/10 A3014
TAFs for airports near SEA, sorted by distance:
N 0 nm 432' KSEA KSEA 280539Z 2806/2912 03006KT P6SM SCT250
  FM281700 30006KT P6SM SCT250
  FM290400 01006KT P6SM SCT250
N 4 nm 21' KBFI KBFI 280539Z 2806/2906 VRB03KT P6SM SCT250
  FM281900 31006KT P6SM SCT250
W 18 nm 444' KPWT TAF KPWT 280539Z 2806/2906 VRB03KT P6SM SCT250
  FM281900 04008KT P6SM SCT250
S 19 nm 322' KTCM TAF KTCM 271300Z 2721/2903 04006KT 9999 SCT250 QNH3005INS
  BECMG 2812/2813 VRB06KT 9999 SCT015 SCT250 QNH3006INS
  BECMG 2818/2819 33009KT 9999 SKC QNH3006INS TX29/2723Z TN12/2813Z
SW 24 nm 301' KGRF TAF TAF KGRF 272051Z 2721/2903 30005KT 9999 SCT150 QNH3002INS
  BECMG 2813/2814 27006KT 9999 BKN010 BKN240 QNH3015INS
  BECMG 2816/2817 35007KT 9999 BKN240 QNH3006INS TX28/2800Z TN14/2813Z
N 27 nm 607' KPAE KPAE 280539Z 2806/2906 36006KT P6SM SCT250
  FM281800 32006KT P6SM SCT250
SW 37 nm 207' KOLM KOLM 280539Z 2806/2906 00000KT P6SM SCT250
  FM281300 VRB03KT 5SM BR SCT002 SCT250
  FM281500 VRB03KT P6SM SCT250
  FM282000 01006KT P6SM SCT250
N 55 nm 47' KNUW TAF TAF KNUW 2723/2823 25007KT FEW030 FEW150 SCT250 QNH3005INS
  FM280400 VRB06KT 9999 FEW030 FEW250 QNH3006INS
  TEMPO 2812/2817 21006KT 4800 BR BKN020 T18/2723Z T11/2813Z FS30028
NW 62 nm 291' KCLM KCLM 280539Z 2806/2906 29008KT P6SM SCT250
SW 72 nm 17' KHQM KHQM 280539Z 2806/2906 VRB03KT P6SM SCT250
  FM280900 VRB03KT 5SM BR OVC004
  FM281200 VRB03KT 1SM BR OVC002
  FM281400 22006KT P6SM OVC005
  FM281600 26014KT P6SM SCT250
N 81 nm 171' KBLI KBLI 280539Z 2806/2906 19008KT P6SM SCT250
E 85 nm 1248' KEAT TAF KEAT 280520Z 2806/2906 32005KT P6SM SCT250
  FM281600 29006KT P6SM SCT250
  FM282000 VRB04KT P6SM SKC
  FM290200 35006KT P6SM SKC
SE 89 nm 1098' KYKM KYKM 280531Z 2806/2906 28008KT P6SM BKN250
  FM282000 25008KT P6SM FEW100 BKN250
  FM290400 28008KT P6SM SCT250

Shortcut to this page: http://wxbay.com.

Data may contain errors.